Time,TemperatureF,DewpointF,PressureIn,WindDirection,WindDirectionDegrees,WindSpeedMPH,WindSpeedGustMPH,Humidity,HourlyPrecipIn,Conditions,Clouds,dailyrainin,SoftwareType,DateUTC
2013-10-07 00:00:00,36.9,32.5,29.77,WNW,293,0.2,0.2,84,0.00,,,0.00,WUHU216HW,2013-10-07 06:00:00,
2013-10-07 00:05:00,36.9,32.5,29.77,WNW,293,0.2,0.2,84,0.00,,,0.00,WUHU216HW,2013-10-07 06:05:00,
2013-10-07 00:30:00,36.5,32.1,29.76,ESE,113,0.4,0.4,84,0.00,,,0.00,WUHU216HW,2013-10-07 06:30:00,
2013-10-07 00:35:00,36.5,32.1,29.76,ESE,113,0.4,0.4,84,0.00,,,0.00,WUHU216HW,2013-10-07 06:35:00,
2013-10-07 01:00:00,35.8,32.2,29.76,West,270,0.0,0.0,87,0.00,,,0.00,WUHU216HW,2013-10-07 07:00:00,
2013-10-07 01:05:00,35.8,32.2,29.76,West,270,0.0,0.0,87,0.00,,,0.00,WUHU216HW,2013-10-07 07:05:00,
2013-10-07 01:10:00,35.8,32.2,29.76,West,270,0.0,0.0,87,0.00,,,0.00,WUHU216HW,2013-10-07 07:10:00,
2013-10-07 01:30:00,35.5,31.6,29.75,West,270,0.0,0.0,86,0.00,,,0.00,WUHU216HW,2013-10-07 07:30:00,
2013-10-07 01:35:00,35.5,31.6,29.75,West,270,0.0,0.0,86,0.00,,,0.00,WUHU216HW,2013-10-07 07:35:00,
2013-10-07 02:00:00,34.9,31.7,29.75,West,270,0.0,0.0,88,0.00,,,0.00,WUHU216HW,2013-10-07 08:00:00,
2013-10-07 02:05:00,34.9,31.7,29.75,West,270,0.0,0.0,88,0.00,,,0.00,WUHU216HW,2013-10-07 08:05:00,
2013-10-07 02:10:00,34.9,31.7,29.75,West,270,0.0,0.0,88,0.00,,,0.00,WUHU216HW,2013-10-07 08:10:00,
2013-10-07 02:30:00,34.2,31.2,29.74,West,270,0.9,0.9,89,0.00,,,0.00,WUHU216HW,2013-10-07 08:30:00,
2013-10-07 02:35:00,34.2,31.2,29.74,West,270,0.9,0.9,89,0.00,,,0.00,WUHU216HW,2013-10-07 08:35:00,
2013-10-07 03:00:00,33.7,30.7,29.74,WNW,293,0.0,0.0,89,0.00,,,0.00,WUHU216HW,2013-10-07 09:00:00,
2013-10-07 03:05:00,33.7,30.7,29.74,WNW,293,0.0,0.0,89,0.00,,,0.00,WUHU216HW,2013-10-07 09:05:00,
2013-10-07 03:10:00,33.7,30.7,29.74,WNW,293,0.0,0.0,89,0.00,,,0.00,WUHU216HW,2013-10-07 09:10:00,
2013-10-07 03:30:00,33.7,31.0,29.73,NNW,338,0.4,0.4,90,0.00,,,0.00,WUHU216HW,2013-10-07 09:30:00,
2013-10-07 03:35:00,33.7,31.0,29.73,NNW,338,0.4,0.4,90,0.00,,,0.00,WUHU216HW,2013-10-07 09:35:00,
2013-10-07 04:00:00,32.0,29.0,29.72,ESE,113,0.0,0.0,88,0.00,,,0.00,WUHU216HW,2013-10-07 10:00:00,
2013-10-07 04:05:00,32.0,29.0,29.72,ESE,113,0.0,0.0,88,0.00,,,0.00,WUHU216HW,2013-10-07 10:05:00,
2013-10-07 04:10:00,32.0,29.0,29.72,ESE,113,0.0,0.0,88,0.00,,,0.00,WUHU216HW,2013-10-07 10:10:00,
2013-10-07 04:30:00,32.2,30.0,29.71,West,270,0.0,0.0,91,0.00,,,0.00,WUHU216HW,2013-10-07 10:30:00,
2013-10-07 04:35:00,32.2,30.0,29.71,West,270,0.0,0.0,91,0.00,,,0.00,WUHU216HW,2013-10-07 10:35:00,
2013-10-07 05:00:00,31.7,29.2,29.71,NW,315,0.0,0.0,90,0.00,,,0.00,WUHU216HW,2013-10-07 11:00:00,
2013-10-07 05:05:00,31.7,29.2,29.71,NW,315,0.0,0.0,90,0.00,,,0.00,WUHU216HW,2013-10-07 11:05:00,
2013-10-07 05:30:00,31.0,28.4,29.71,WNW,293,0.7,0.7,90,0.00,,,0.00,WUHU216HW,2013-10-07 11:30:00,
2013-10-07 05:35:00,31.0,28.4,29.71,WNW,293,0.7,0.7,90,0.00,,,0.00,WUHU216HW,2013-10-07 11:35:00,
2013-10-07 06:00:00,30.1,27.5,29.71,East,90,0.0,0.0,90,0.00,,,0.00,WUHU216HW,2013-10-07 12:00:00,
2013-10-07 06:05:00,30.1,27.5,29.71,East,90,0.0,0.0,90,0.00,,,0.00,WUHU216HW,2013-10-07 12:05:00,
2013-10-07 06:10:00,30.1,27.5,29.71,East,90,0.0,0.0,90,0.00,,,0.00,WUHU216HW,2013-10-07 12:10:00,
2013-10-07 06:30:00,30.6,28.4,29.70,ENE,68,1.1,1.1,91,0.00,,,0.00,WUHU216HW,2013-10-07 12:30:00,
2013-10-07 06:35:00,30.6,28.4,29.70,ENE,68,1.1,1.1,91,0.00,,,0.00,WUHU216HW,2013-10-07 12:35:00,
2013-10-07 07:00:00,30.4,28.5,29.70,West,270,0.0,0.0,92,0.00,,,0.00,WUHU216HW,2013-10-07 13:00:00,
2013-10-07 07:05:00,30.4,28.5,29.70,West,270,0.0,0.0,92,0.00,,,0.00,WUHU216HW,2013-10-07 13:05:00,
2013-10-07 07:30:00,29.3,27.1,29.70,NNW,338,0.0,0.0,91,0.00,,,0.00,WUHU216HW,2013-10-07 13:30:00,
2013-10-07 07:35:00,29.3,27.1,29.70,NNW,338,0.0,0.0,91,0.00,,,0.00,WUHU216HW,2013-10-07 13:35:00,
2013-10-07 08:00:00,29.5,27.6,29.70,SSW,203,0.0,0.0,92,0.00,,,0.00,WUHU216HW,2013-10-07 14:00:00,
2013-10-07 08:05:00,29.5,27.6,29.70,SSW,203,0.0,0.0,92,0.00,,,0.00,WUHU216HW,2013-10-07 14:05:00,
2013-10-07 08:30:00,30.6,28.6,29.70,West,270,0.0,0.0,92,0.00,,,0.00,WUHU216HW,2013-10-07 14:30:00,
2013-10-07 08:35:00,30.6,28.6,29.70,West,270,0.0,0.0,92,0.00,,,0.00,WUHU216HW,2013-10-07 14:35:00,
2013-10-07 09:00:00,31.3,29.4,29.70,North,0,0.0,0.0,92,0.00,,,0.00,WUHU216HW,2013-10-07 15:00:00,
2013-10-07 09:05:00,31.3,29.4,29.70,North,0,0.0,0.0,92,0.00,,,0.00,WUHU216HW,2013-10-07 15:05:00,
2013-10-07 09:30:00,34.2,32.0,29.69,NNW,338,0.0,0.0,92,0.00,,,0.00,WUHU216HW,2013-10-07 15:30:00,
2013-10-07 09:35:00,34.2,32.0,29.69,NNW,338,0.0,0.0,92,0.00,,,0.00,WUHU216HW,2013-10-07 15:35:00,
2013-10-07 10:00:00,40.0,37.5,29.69,SSW,203,0.0,0.0,91,0.00,,,0.00,WUHU216HW,2013-10-07 16:00:00,
2013-10-07 10:05:00,40.0,37.5,29.69,SSW,203,0.0,0.0,91,0.00,,,0.00,WUHU216HW,2013-10-07 16:05:00,
2013-10-07 10:30:00,49.7,39.5,29.69,SSE,158,1.8,1.8,68,0.00,,,0.00,WUHU216HW,2013-10-07 16:30:00,
2013-10-07 10:35:00,49.7,39.5,29.69,SSE,158,1.8,1.8,68,0.00,,,0.00,WUHU216HW,2013-10-07 16:35:00,
2013-10-07 11:00:00,47.2,39.2,29.68,NW,315,1.1,1.1,74,0.00,,,0.00,WUHU216HW,2013-10-07 17:00:00,
2013-10-07 11:05:00,47.2,39.2,29.68,NW,315,1.1,1.1,74,0.00,,,0.00,WUHU216HW,2013-10-07 17:05:00,
2013-10-07 11:30:00,48.1,40.1,29.66,NNW,338,1.6,1.6,74,0.00,,,0.00,WUHU216HW,2013-10-07 17:30:00,
2013-10-07 11:35:00,48.1,40.1,29.66,NNW,338,1.6,1.6,74,0.00,,,0.00,WUHU216HW,2013-10-07 17:35:00,
2013-10-07 12:00:00,54.5,43.4,29.65,SW,225,1.1,1.1,66,0.00,,,0.00,WUHU216HW,2013-10-07 18:00:00,
2013-10-07 12:05:00,54.5,43.4,29.65,SW,225,1.1,1.1,66,0.00,,,0.00,WUHU216HW,2013-10-07 18:05:00,
2013-10-07 12:30:00,56.5,44.5,29.64,West,270,1.8,1.8,64,0.00,,,0.00,WUHU216HW,2013-10-07 18:30:00,
2013-10-07 12:35:00,56.5,44.5,29.64,West,270,1.8,1.8,64,0.00,,,0.00,WUHU216HW,2013-10-07 18:35:00,
2013-10-07 13:00:00,59.0,40.5,29.63,SSE,158,1.6,1.6,50,0.00,,,0.00,WUHU216HW,2013-10-07 19:00:00,
2013-10-07 13:05:00,59.0,40.5,29.63,SSE,158,1.6,1.6,50,0.00,,,0.00,WUHU216HW,2013-10-07 19:05:00,
2013-10-07 13:30:00,58.9,39.2,29.62,NW,315,1.1,1.1,48,0.00,,,0.00,WUHU216HW,2013-10-07 19:30:00,
2013-10-07 13:35:00,58.9,39.2,29.62,NW,315,1.1,1.1,48,0.00,,,0.00,WUHU216HW,2013-10-07 19:35:00,
2013-10-07 14:00:00,57.1,40.6,29.62,West,270,2.9,2.9,54,0.00,,,0.00,WUHU216HW,2013-10-07 20:00:00,
2013-10-07 14:05:00,57.1,40.6,29.62,West,270,2.9,2.9,54,0.00,,,0.00,WUHU216HW,2013-10-07 20:05:00,
2013-10-07 14:30:00,54.5,42.2,29.62,NW,315,0.9,0.9,63,0.00,,,0.00,WUHU216HW,2013-10-07 20:30:00,
2013-10-07 14:35:00,54.5,42.2,29.62,NW,315,0.9,0.9,63,0.00,,,0.00,WUHU216HW,2013-10-07 20:35:00,
2013-10-07 15:00:00,55.3,38.8,29.61,NNW,338,2.0,2.0,54,0.00,,,0.00,WUHU216HW,2013-10-07 21:00:00,
2013-10-07 15:05:00,55.3,38.8,29.61,NNW,338,2.0,2.0,54,0.00,,,0.00,WUHU216HW,2013-10-07 21:05:00,
2013-10-07 15:30:00,55.4,39.4,29.61,NW,315,0.9,0.9,55,0.00,,,0.00,WUHU216HW,2013-10-07 21:30:00,
2013-10-07 15:35:00,55.4,39.4,29.61,NW,315,0.9,0.9,55,0.00,,,0.00,WUHU216HW,2013-10-07 21:35:00,
2013-10-07 16:00:00,55.6,40.1,29.60,WNW,293,0.9,0.9,56,0.00,,,0.00,WUHU216HW,2013-10-07 22:00:00,
2013-10-07 16:05:00,55.6,40.1,29.60,WNW,293,0.4,0.9,56,0.00,,,0.00,WUHU216HW,2013-10-07 22:05:00,
2013-10-07 16:10:00,55.6,40.1,29.60,WNW,293,0.4,0.4,56,0.00,,,0.00,WUHU216HW,2013-10-07 22:10:00,
2013-10-07 16:30:00,57.4,37.9,29.59,WSW,248,1.1,1.1,48,0.00,,,0.00,WUHU216HW,2013-10-07 22:30:00,
2013-10-07 16:35:00,57.4,37.9,29.59,WSW,248,1.1,1.1,48,0.00,,,0.00,WUHU216HW,2013-10-07 22:35:00,
2013-10-07 17:00:00,58.3,35.8,29.59,West,270,0.7,0.7,43,0.00,,,0.00,WUHU216HW,2013-10-07 23:00:00,
2013-10-07 17:05:00,58.3,35.8,29.59,West,270,1.1,1.1,43,0.00,,,0.00,WUHU216HW,2013-10-07 23:05:00,
2013-10-07 17:10:00,58.3,35.8,29.59,West,270,1.1,1.1,43,0.00,,,0.00,WUHU216HW,2013-10-07 23:10:00,
2013-10-07 17:30:00,58.0,36.1,29.57,WNW,293,1.8,1.8,44,0.00,,,0.00,WUHU216HW,2013-10-07 23:30:00,
2013-10-07 17:35:00,58.0,36.1,29.57,WNW,293,1.8,1.8,44,0.00,,,0.00,WUHU216HW,2013-10-07 23:35:00,
2013-10-07 18:00:00,57.8,37.1,29.56,WNW,293,1.3,1.3,46,0.00,,,0.00,WUHU216HW,2013-10-08 00:00:00,
2013-10-07 18:05:00,57.8,37.1,29.56,WNW,293,1.3,1.3,46,0.00,,,0.00,WUHU216HW,2013-10-08 00:05:00,
2013-10-07 18:10:00,57.8,37.1,29.56,WNW,293,1.3,1.3,46,0.00,,,0.00,WUHU216HW,2013-10-08 00:10:00,
2013-10-07 18:30:00,56.9,38.0,29.57,NNW,338,1.1,1.1,49,0.00,,,0.00,WUHU216HW,2013-10-08 00:30:00,
2013-10-07 18:35:00,56.9,38.0,29.57,NNW,338,1.1,1.1,49,0.00,,,0.00,WUHU216HW,2013-10-08 00:35:00,
2013-10-07 19:00:00,55.3,36.9,29.57,WNW,293,1.3,1.3,50,0.00,,,0.00,WUHU216HW,2013-10-08 01:00:00,
2013-10-07 19:05:00,55.3,37.4,29.57,NE,45,2.5,2.5,51,0.00,,,0.00,WUHU216HW,2013-10-08 01:05:00,
2013-10-07 19:10:00,55.3,37.4,29.57,NE,45,2.5,2.5,51,0.00,,,0.00,WUHU216HW,2013-10-08 01:10:00,
2013-10-07 19:30:00,53.8,38.0,29.58,West,270,1.3,1.3,55,0.00,,,0.00,WUHU216HW,2013-10-08 01:30:00,
2013-10-07 19:35:00,53.8,38.0,29.58,West,270,1.3,1.3,55,0.00,,,0.00,WUHU216HW,2013-10-08 01:35:00,
2013-10-07 20:00:00,47.2,41.3,29.62,NW,315,3.4,3.4,80,0.01,,,0.00,WUHU216HW,2013-10-08 02:00:00,
2013-10-07 20:05:00,47.2,41.3,29.62,NW,315,0.7,3.4,80,0.01,,,0.01,WUHU216HW,2013-10-08 02:05:00,
2013-10-07 20:10:00,47.2,41.3,29.62,NW,315,0.7,0.7,80,0.01,,,0.01,WUHU216HW,2013-10-08 02:10:00,
2013-10-07 20:30:00,45.2,40.1,29.63,SE,135,0.4,0.4,82,0.01,,,0.01,WUHU216HW,2013-10-08 02:30:00,
2013-10-07 20:35:00,45.2,40.1,29.63,SE,135,0.4,0.4,82,0.01,,,0.01,WUHU216HW,2013-10-08 02:35:00,
2013-10-07 21:00:00,43.6,40.0,29.64,WNW,293,1.1,1.1,87,0.00,,,0.01,WUHU216HW,2013-10-08 03:00:00,
2013-10-07 21:05:00,43.6,40.0,29.64,WNW,293,1.1,1.1,87,0.00,,,0.01,WUHU216HW,2013-10-08 03:05:00,
2013-10-07 21:30:00,42.8,39.3,29.63,NNW,338,0.4,0.4,87,0.00,,,0.01,WUHU216HW,2013-10-08 03:30:00,
2013-10-07 21:35:00,42.8,39.3,29.63,NNW,338,0.4,0.4,87,0.00,,,0.01,WUHU216HW,2013-10-08 03:35:00,
2013-10-07 22:00:00,43.0,39.1,29.64,NNE,23,0.4,0.4,86,0.00,,,0.01,WUHU216HW,2013-10-08 04:00:00,
2013-10-07 22:01:00,43.0,39.1,29.64,NNE,23,0.4,0.4,86,0.00,,,0.01,WUHU216HW,2013-10-08 04:01:00,
2013-10-07 22:06:00,43.0,39.1,29.64,NNE,23,0.4,0.4,86,0.00,,,0.01,WUHU216HW,2013-10-08 04:06:00,
2013-10-07 22:30:00,42.1,39.2,29.64,WNW,293,0.0,0.0,89,0.00,,,0.01,WUHU216HW,2013-10-08 04:30:00,
2013-10-07 22:35:00,42.1,39.2,29.64,WNW,293,0.0,0.0,89,0.00,,,0.01,WUHU216HW,2013-10-08 04:35:00,
2013-10-07 23:00:00,41.9,39.2,29.65,NW,315,0.2,0.2,90,0.00,,,0.01,WUHU216HW,2013-10-08 05:00:00,
2013-10-07 23:05:00,41.9,39.2,29.65,NW,315,0.2,0.2,90,0.00,,,0.01,WUHU216HW,2013-10-08 05:05:00,
2013-10-07 23:30:00,45.0,40.1,29.64,North,0,0.2,0.2,83,0.00,,,0.01,WUHU216HW,2013-10-08 05:30:00,
2013-10-07 23:35:00,45.0,40.1,29.64,North,0,0.2,0.2,83,0.00,,,0.01,WUHU216HW,2013-10-08 05:35:00,